Miyako Airport
ROMY : now visible

Airfield :











YOU CAN JOIN US ON...

 
LOGIN :

Register | Disclaimer

   EN    FR    IT 

 









Legend :    VFR   Marginal VFR   IFR   Intensive IFR   Very Intensive IFR
Visi :
Ceiling :
>= 8 km
>= 3000ft
5 to 8 km
1000 to 3000 ft
1500m to 5 km
500 to 1000 ft
800 to 1500m
200 to 500 ft
< 800m
< 200 ft
Symbols :   Thunderstorms  Fog  Heavy snow  Heavy precipitations  Wind > 20 kt







- Airport Elevation : 150 ft
- IATA code : MMY


ROMY - Miyako

CURRENT METAR :
  • 210200Z 26021G34KT 5000 -SHRA BR SCT011 BKN015 27/26 Q0991

EXPIRED METARs :
  • 210133Z 26023G37KT 6000 -SHRA SCT013 BKN015 27/26 Q0990 RMK 3CU013 7CU015 A2926
  • 210120Z 26024G37KT 3500 R22/1300VP1800D -SHRA BR FEW009 SCT012 BKN015 FEW020TCU 27/25 Q0990 RMK 1CU009 3CU012 7CU015 1TCU020 A2925 TCU 10KM NE MOV E
  • 210100Z 26022G35KT 5000 -SHRA BR FEW008 SCT010 BKN015 28/26 Q0990
  • 210042Z 26023G38KT 4000 R22/0800VP1800U -SHRA BR FEW006 SCT010 BKN015 FEW020TCU 27/26 Q0989 RMK 1ST006 4CU010 7CU015 1TCU020 A2923 TCU OHD MOV E
  • 210014Z 27019G29KT 2000 R22/0750V1400D SHRA BR FEW007 SCT010 BKN015 26/25 Q0989 RMK 2ST007 4CU010 7CU015 A2921
  • 210000Z 27019G32KT 3000 R22/0750VP1800D SHRA BR SCT012 BKN015 27/25 Q0988

TAF N/A
No reported NOTAMs for that airfield.



MET'MAP, your aeronautical weather chart ! - Copyright ORBIFLY December 2007 - Disclaimer

ORBIFLY MET'MAP TEAM :

Programming & Development : Alexandra Zaïnal
Concept & Development : Baudouin d'Aumeries
Co-Development & Prog : Marc-Olivier Méhu
Technical & hardware support : Manuel Goepfert

Contact : metmap@orbifly.com




SOURCES & CREDITS :

   NOAA       Earth
Advisory